Wainwright, Missouri
Current Conditions -  °F | °C
As of 6:53 AM on Wednesday 22 Oct 2014 (Local Time) from KJEF Reporting Station
Clear Clear  
Wind Chill: 43°   Ceiling: Unl
Heat Index: 45°   Visibility: 10mi
Dew Point: 41°   Wind: 5mph
Humidity: 86%   Direction: 100°E
Pressure: 30.26"   Gusts: NA
Location:  38.6152°N, 92.0964°W
Report Text: KJEF 221153Z 10004KT 10SM CLR 07/05 A3026 RMK AO2 SLP238 T00720050 10094 20061 53015
Loading
Personal Weather Stations






























Interactive Weather Map
Tropical Storm Tracking
New forecast layout! Learn more

10-Day Weather Forecast

Advertisements
Track Severe Weather on mobile